KPMU/PMU METAR and TAF weather

Enter ICAO airport designator
Station Type Date Time Source
KPMU METAR 2022/06/26 07:35 UTC NOAA

KPMU 260735Z AUTO 00000KT 10SM CLR 22/21 A3000 RMK AO2


Station Type Date Time Source
KPMU Decoded METAR 2022/06/26 07:35 UTC NOAA

Station name not available
Jun 26, 2022 - 03:35 AM EDT / 2022.06.26 0735 UTC
Wind: Calm:0
Visibility: 10 mile(s):0
Sky conditions: clear
Temperature: 71 F (22 C)
Dew Point: 69 F (21 C)
Relative Humidity: 94%
Pressure (altimeter): 30 in. Hg (1015 hPa)
ob: KPMU 260735Z AUTO 00000KT 10SM CLR 22/21 A3000 RMK AO2
cycle: 7

Station Type Date Time Source
KPMU TAF UTC NOAA

Error!

Example: see airport list